sensor_id;sensor_type;location;lat;lon;timestamp;P1;durP1;ratioP1;P2;durP2;ratioP2
13832;SDS011;6987;19.472;-99.276;2023-05-29T00:01:44;3.38;;;3.15;;
13832;SDS011;6987;19.472;-99.276;2023-05-29T00:04:13;3.40;;;3.10;;
13832;SDS011;6987;19.472;-99.276;2023-05-29T00:06:42;3.60;;;3.40;;
13832;SDS011;6987;19.472;-99.276;2023-05-29T00:09:11;4.35;;;2.92;;
13832;SDS011;6987;19.472;-99.276;2023-05-29T00:11:39;3.58;;;3.38;;
13832;SDS011;6987;19.472;-99.276;2023-05-29T00:14:08;3.35;;;3.05;;
13832;SDS011;6987;19.472;-99.276;2023-05-29T00:16:39;7.63;;;3.40;;
13832;SDS011;6987;19.472;-99.276;2023-05-29T00:19:11;3.67;;;3.25;;
13832;SDS011;6987;19.472;-99.276;2023-05-29T00:21:42;3.88;;;3.60;;
13832;SDS011;6987;19.472;-99.276;2023-05-29T00:24:13;9.00;;;6.10;;
13832;SDS011;6987;19.472;-99.276;2023-05-29T00:26:42;8.80;;;5.90;;
13832;SDS011;6987;19.472;-99.276;2023-05-29T00:29:11;7.78;;;7.18;;
13832;SDS011;6987;19.472;-99.276;2023-05-29T00:31:40;6.60;;;6.20;;
13832;SDS011;6987;19.472;-99.276;2023-05-29T00:34:09;7.95;;;7.22;;
13832;SDS011;6987;19.472;-99.276;2023-05-29T00:36:40;7.32;;;6.70;;
13832;SDS011;6987;19.472;-99.276;2023-05-29T00:39:08;6.28;;;5.88;;
13832;SDS011;6987;19.472;-99.276;2023-05-29T00:41:37;7.50;;;6.35;;
13832;SDS011;6987;19.472;-99.276;2023-05-29T00:44:06;7.68;;;6.90;;
13832;SDS011;6987;19.472;-99.276;2023-05-29T00:46:36;8.00;;;6.53;;
13832;SDS011;6987;19.472;-99.276;2023-05-29T00:49:04;7.55;;;6.78;;
13832;SDS011;6987;19.472;-99.276;2023-05-29T00:51:34;6.38;;;5.78;;
13832;SDS011;6987;19.472;-99.276;2023-05-29T00:54:05;6.70;;;6.20;;
13832;SDS011;6987;19.472;-99.276;2023-05-29T00:56:35;6.60;;;6.07;;
13832;SDS011;6987;19.472;-99.276;2023-05-29T00:59:04;8.70;;;6.13;;
13832;SDS011;6987;19.472;-99.276;2023-05-29T01:01:33;7.28;;;6.60;;
13832;SDS011;6987;19.472;-99.276;2023-05-29T01:04:03;6.90;;;6.22;;
13832;SDS011;6987;19.472;-99.276;2023-05-29T01:06:32;6.70;;;6.20;;
13832;SDS011;6987;19.472;-99.276;2023-05-29T01:09:01;6.63;;;6.07;;
13832;SDS011;6987;19.472;-99.276;2023-05-29T01:11:33;9.02;;;6.28;;
13832;SDS011;6987;19.472;-99.276;2023-05-29T01:14:05;8.45;;;5.63;;
13832;SDS011;6987;19.472;-99.276;2023-05-29T01:16:37;7.15;;;6.65;;
13832;SDS011;6987;19.472;-99.276;2023-05-29T01:19:09;6.53;;;5.70;;
13832;SDS011;6987;19.472;-99.276;2023-05-29T01:21:42;6.68;;;6.10;;
13832;SDS011;6987;19.472;-99.276;2023-05-29T01:24:15;8.52;;;5.28;;
13832;SDS011;6987;19.472;-99.276;2023-05-29T01:26:50;8.60;;;5.95;;
13832;SDS011;6987;19.472;-99.276;2023-05-29T01:29:21;6.30;;;5.80;;
13832;SDS011;6987;19.472;-99.276;2023-05-29T01:31:50;8.88;;;6.18;;
13832;SDS011;6987;19.472;-99.276;2023-05-29T01:34:20;7.47;;;6.88;;
13832;SDS011;6987;19.472;-99.276;2023-05-29T01:36:49;6.72;;;6.10;;
13832;SDS011;6987;19.472;-99.276;2023-05-29T01:39:18;7.95;;;6.75;;
13832;SDS011;6987;19.472;-99.276;2023-05-29T01:41:47;7.50;;;6.25;;
13832;SDS011;6987;19.472;-99.276;2023-05-29T01:44:17;7.30;;;6.72;;
13832;SDS011;6987;19.472;-99.276;2023-05-29T01:46:46;7.03;;;6.32;;
13832;SDS011;6987;19.472;-99.276;2023-05-29T01:49:16;9.52;;;6.80;;
13832;SDS011;6987;19.472;-99.276;2023-05-29T01:51:45;7.15;;;6.57;;
13832;SDS011;6987;19.472;-99.276;2023-05-29T01:54:14;6.47;;;5.97;;
13832;SDS011;6987;19.472;-99.276;2023-05-29T01:56:43;7.32;;;6.80;;
13832;SDS011;6987;19.472;-99.276;2023-05-29T01:59:13;7.63;;;6.80;;
13832;SDS011;6987;19.472;-99.276;2023-05-29T02:01:43;7.07;;;6.47;;
13832;SDS011;6987;19.472;-99.276;2023-05-29T02:04:12;8.15;;;6.35;;
13832;SDS011;6987;19.472;-99.276;2023-05-29T02:06:41;7.47;;;6.78;;
13832;SDS011;6987;19.472;-99.276;2023-05-29T02:09:10;6.88;;;6.35;;
13832;SDS011;6987;19.472;-99.276;2023-05-29T02:11:39;7.72;;;7.03;;
13832;SDS011;6987;19.472;-99.276;2023-05-29T02:14:11;6.90;;;6.30;;
13832;SDS011;6987;19.472;-99.276;2023-05-29T02:16:40;7.25;;;6.65;;
13832;SDS011;6987;19.472;-99.276;2023-05-29T02:19:11;6.97;;;6.47;;
13832;SDS011;6987;19.472;-99.276;2023-05-29T02:21:40;6.80;;;6.30;;
13832;SDS011;6987;19.472;-99.276;2023-05-29T02:24:09;8.05;;;7.25;;
13832;SDS011;6987;19.472;-99.276;2023-05-29T02:26:37;6.63;;;6.05;;
13832;SDS011;6987;19.472;-99.276;2023-05-29T02:29:06;7.88;;;7.03;;
13832;SDS011;6987;19.472;-99.276;2023-05-29T02:31:36;8.35;;;7.63;;
13832;SDS011;6987;19.472;-99.276;2023-05-29T02:34:05;9.90;;;9.10;;
13832;SDS011;6987;19.472;-99.276;2023-05-29T02:36:35;8.90;;;8.15;;
13832;SDS011;6987;19.472;-99.276;2023-05-29T02:39:05;13.05;;;8.15;;
13832;SDS011;6987;19.472;-99.276;2023-05-29T02:41:34;8.45;;;7.65;;
13832;SDS011;6987;19.472;-99.276;2023-05-29T02:44:02;6.90;;;6.32;;
13832;SDS011;6987;19.472;-99.276;2023-05-29T02:46:31;6.38;;;5.78;;
13832;SDS011;6987;19.472;-99.276;2023-05-29T02:49:00;6.70;;;6.00;;
13832;SDS011;6987;19.472;-99.276;2023-05-29T02:51:29;6.03;;;5.63;;
13832;SDS011;6987;19.472;-99.276;2023-05-29T02:54:00;5.50;;;5.20;;
13832;SDS011;6987;19.472;-99.276;2023-05-29T02:56:29;5.70;;;5.30;;
13832;SDS011;6987;19.472;-99.276;2023-05-29T02:58:58;6.85;;;6.07;;
13832;SDS011;6987;19.472;-99.276;2023-05-29T03:01:27;5.78;;;5.38;;
13832;SDS011;6987;19.472;-99.276;2023-05-29T03:03:58;7.93;;;5.85;;
13832;SDS011;6987;19.472;-99.276;2023-05-29T03:06:27;6.20;;;5.70;;
13832;SDS011;6987;19.472;-99.276;2023-05-29T03:08:57;5.32;;;4.93;;
13832;SDS011;6987;19.472;-99.276;2023-05-29T03:11:28;5.82;;;5.32;;
13832;SDS011;6987;19.472;-99.276;2023-05-29T03:13:57;7.88;;;5.75;;
13832;SDS011;6987;19.472;-99.276;2023-05-29T03:16:26;5.32;;;4.82;;
13832;SDS011;6987;19.472;-99.276;2023-05-29T03:18:55;4.82;;;4.53;;
13832;SDS011;6987;19.472;-99.276;2023-05-29T03:21:24;5.03;;;4.63;;
13832;SDS011;6987;19.472;-99.276;2023-05-29T03:23:53;4.82;;;4.53;;
13832;SDS011;6987;19.472;-99.276;2023-05-29T03:26:22;5.70;;;5.30;;
13832;SDS011;6987;19.472;-99.276;2023-05-29T03:28:53;5.55;;;5.15;;
13832;SDS011;6987;19.472;-99.276;2023-05-29T03:31:22;7.70;;;6.97;;
13832;SDS011;6987;19.472;-99.276;2023-05-29T03:33:51;7.15;;;6.60;;
13832;SDS011;6987;19.472;-99.276;2023-05-29T03:36:19;7.22;;;5.43;;
13832;SDS011;6987;19.472;-99.276;2023-05-29T03:38:48;7.68;;;5.82;;
13832;SDS011;6987;19.472;-99.276;2023-05-29T03:41:17;6.28;;;5.80;;
13832;SDS011;6987;19.472;-99.276;2023-05-29T03:43:46;7.10;;;6.55;;
13832;SDS011;6987;19.472;-99.276;2023-05-29T03:46:17;9.18;;;7.30;;
13832;SDS011;6987;19.472;-99.276;2023-05-29T03:48:45;10.00;;;7.60;;
13832;SDS011;6987;19.472;-99.276;2023-05-29T03:51:14;7.45;;;6.85;;
13832;SDS011;6987;19.472;-99.276;2023-05-29T03:53:43;7.80;;;6.50;;
13832;SDS011;6987;19.472;-99.276;2023-05-29T03:56:12;7.00;;;6.50;;
13832;SDS011;6987;19.472;-99.276;2023-05-29T03:58:41;6.55;;;5.88;;
13832;SDS011;6987;19.472;-99.276;2023-05-29T04:01:10;6.80;;;6.20;;
13832;SDS011;6987;19.472;-99.276;2023-05-29T04:03:40;8.45;;;7.50;;
13832;SDS011;6987;19.472;-99.276;2023-05-29T04:06:09;7.75;;;6.88;;
13832;SDS011;6987;19.472;-99.276;2023-05-29T04:08:39;7.70;;;7.00;;
13832;SDS011;6987;19.472;-99.276;2023-05-29T04:11:08;7.38;;;6.75;;
13832;SDS011;6987;19.472;-99.276;2023-05-29T04:13:39;8.15;;;7.47;;
13832;SDS011;6987;19.472;-99.276;2023-05-29T04:16:08;9.13;;;7.70;;
13832;SDS011;6987;19.472;-99.276;2023-05-29T04:18:37;7.35;;;6.78;;
13832;SDS011;6987;19.472;-99.276;2023-05-29T04:21:08;7.85;;;7.18;;
13832;SDS011;6987;19.472;-99.276;2023-05-29T04:23:36;8.23;;;7.50;;
13832;SDS011;6987;19.472;-99.276;2023-05-29T04:26:06;9.20;;;7.60;;
13832;SDS011;6987;19.472;-99.276;2023-05-29T04:28:37;8.75;;;8.02;;
13832;SDS011;6987;19.472;-99.276;2023-05-29T04:31:05;7.80;;;7.15;;
13832;SDS011;6987;19.472;-99.276;2023-05-29T04:33:34;8.68;;;7.28;;
13832;SDS011;6987;19.472;-99.276;2023-05-29T04:36:03;7.97;;;7.18;;
13832;SDS011;6987;19.472;-99.276;2023-05-29T04:38:36;8.07;;;7.38;;
13832;SDS011;6987;19.472;-99.276;2023-05-29T04:41:05;14.52;;;7.18;;
13832;SDS011;6987;19.472;-99.276;2023-05-29T04:43:36;7.35;;;6.80;;
13832;SDS011;6987;19.472;-99.276;2023-05-29T04:46:06;7.25;;;6.65;;
13832;SDS011;6987;19.472;-99.276;2023-05-29T04:48:38;7.45;;;6.68;;
13832;SDS011;6987;19.472;-99.276;2023-05-29T04:51:07;10.98;;;7.38;;
13832;SDS011;6987;19.472;-99.276;2023-05-29T04:53:38;8.07;;;6.82;;
13832;SDS011;6987;19.472;-99.276;2023-05-29T04:56:08;9.82;;;6.57;;
13832;SDS011;6987;19.472;-99.276;2023-05-29T04:58:37;7.53;;;6.93;;
13832;SDS011;6987;19.472;-99.276;2023-05-29T05:01:06;9.45;;;7.07;;
13832;SDS011;6987;19.472;-99.276;2023-05-29T05:03:40;8.15;;;6.53;;
13832;SDS011;6987;19.472;-99.276;2023-05-29T05:06:08;8.70;;;6.55;;
13832;SDS011;6987;19.472;-99.276;2023-05-29T05:08:40;8.00;;;7.30;;
13832;SDS011;6987;19.472;-99.276;2023-05-29T05:11:08;7.10;;;6.50;;
13832;SDS011;6987;19.472;-99.276;2023-05-29T05:13:37;6.93;;;6.32;;
13832;SDS011;6987;19.472;-99.276;2023-05-29T05:16:06;9.52;;;6.35;;
13832;SDS011;6987;19.472;-99.276;2023-05-29T05:18:35;8.43;;;6.20;;
13832;SDS011;6987;19.472;-99.276;2023-05-29T05:21:04;7.18;;;6.47;;
13832;SDS011;6987;19.472;-99.276;2023-05-29T05:23:33;8.63;;;6.05;;
13832;SDS011;6987;19.472;-99.276;2023-05-29T05:26:04;6.25;;;5.65;;
13832;SDS011;6987;19.472;-99.276;2023-05-29T05:28:33;6.05;;;5.45;;
13832;SDS011;6987;19.472;-99.276;2023-05-29T05:31:01;6.32;;;5.75;;
13832;SDS011;6987;19.472;-99.276;2023-05-29T05:33:30;6.45;;;5.75;;
13832;SDS011;6987;19.472;-99.276;2023-05-29T05:35:59;6.28;;;5.78;;
13832;SDS011;6987;19.472;-99.276;2023-05-29T05:38:28;5.28;;;4.78;;
13832;SDS011;6987;19.472;-99.276;2023-05-29T05:40:57;4.65;;;4.22;;
13832;SDS011;6987;19.472;-99.276;2023-05-29T05:43:27;4.60;;;4.22;;
13832;SDS011;6987;19.472;-99.276;2023-05-29T05:45:56;4.15;;;3.88;;
13832;SDS011;6987;19.472;-99.276;2023-05-29T05:48:25;4.18;;;3.88;;
13832;SDS011;6987;19.472;-99.276;2023-05-29T05:50:54;4.47;;;4.20;;
13832;SDS011;6987;19.472;-99.276;2023-05-29T05:53:23;4.93;;;4.03;;
13832;SDS011;6987;19.472;-99.276;2023-05-29T05:55:52;3.75;;;3.55;;
13832;SDS011;6987;19.472;-99.276;2023-05-29T05:58:21;4.15;;;3.95;;
13832;SDS011;6987;19.472;-99.276;2023-05-29T06:00:52;4.95;;;4.55;;
13832;SDS011;6987;19.472;-99.276;2023-05-29T06:03:21;4.95;;;4.65;;
13832;SDS011;6987;19.472;-99.276;2023-05-29T06:05:50;5.57;;;4.07;;
13832;SDS011;6987;19.472;-99.276;2023-05-29T06:08:20;4.25;;;3.88;;
13832;SDS011;6987;19.472;-99.276;2023-05-29T06:10:48;3.67;;;3.38;;
13832;SDS011;6987;19.472;-99.276;2023-05-29T06:13:18;4.13;;;3.72;;
13832;SDS011;6987;19.472;-99.276;2023-05-29T06:15:47;3.28;;;3.05;;
13832;SDS011;6987;19.472;-99.276;2023-05-29T06:18:17;5.75;;;3.72;;
13832;SDS011;6987;19.472;-99.276;2023-05-29T06:20:46;3.22;;;2.90;;
13832;SDS011;6987;19.472;-99.276;2023-05-29T06:23:15;3.08;;;2.88;;
13832;SDS011;6987;19.472;-99.276;2023-05-29T06:25:44;3.38;;;3.08;;
13832;SDS011;6987;19.472;-99.276;2023-05-29T06:28:13;3.47;;;3.17;;
13832;SDS011;6987;19.472;-99.276;2023-05-29T06:30:42;4.20;;;2.92;;
13832;SDS011;6987;19.472;-99.276;2023-05-29T06:33:11;3.55;;;3.25;;
13832;SDS011;6987;19.472;-99.276;2023-05-29T06:35:42;2.53;;;2.33;;
13832;SDS011;6987;19.472;-99.276;2023-05-29T06:38:11;2.63;;;2.42;;
13832;SDS011;6987;19.472;-99.276;2023-05-29T06:40:39;2.47;;;2.30;;
13832;SDS011;6987;19.472;-99.276;2023-05-29T06:43:08;2.83;;;2.63;;
13832;SDS011;6987;19.472;-99.276;2023-05-29T06:45:37;2.45;;;2.35;;
13832;SDS011;6987;19.472;-99.276;2023-05-29T06:48:06;2.42;;;2.22;;
13832;SDS011;6987;19.472;-99.276;2023-05-29T06:50:35;2.70;;;2.30;;
13832;SDS011;6987;19.472;-99.276;2023-05-29T06:53:05;2.38;;;2.22;;
13832;SDS011;6987;19.472;-99.276;2023-05-29T06:55:34;2.90;;;2.55;;
13832;SDS011;6987;19.472;-99.276;2023-05-29T06:58:03;2.47;;;1.77;;
13832;SDS011;6987;19.472;-99.276;2023-05-29T07:00:32;2.58;;;2.08;;
13832;SDS011;6987;19.472;-99.276;2023-05-29T07:03:01;2.15;;;2.05;;
13832;SDS011;6987;19.472;-99.276;2023-05-29T07:05:30;2.03;;;1.92;;
13832;SDS011;6987;19.472;-99.276;2023-05-29T07:07:58;1.77;;;1.58;;
13832;SDS011;6987;19.472;-99.276;2023-05-29T07:10:29;1.70;;;1.60;;
13832;SDS011;6987;19.472;-99.276;2023-05-29T07:12:58;2.05;;;1.95;;
13832;SDS011;6987;19.472;-99.276;2023-05-29T07:15:27;1.75;;;1.65;;
13832;SDS011;6987;19.472;-99.276;2023-05-29T07:17:55;1.92;;;1.80;;
13832;SDS011;6987;19.472;-99.276;2023-05-29T07:20:24;2.42;;;1.73;;
13832;SDS011;6987;19.472;-99.276;2023-05-29T07:22:53;1.60;;;1.60;;
13832;SDS011;6987;19.472;-99.276;2023-05-29T07:25:22;2.95;;;1.80;;
13832;SDS011;6987;19.472;-99.276;2023-05-29T07:27:53;2.05;;;1.75;;
13832;SDS011;6987;19.472;-99.276;2023-05-29T07:30:22;1.48;;;1.48;;
13832;SDS011;6987;19.472;-99.276;2023-05-29T07:32:51;2.30;;;1.88;;
13832;SDS011;6987;19.472;-99.276;2023-05-29T07:35:21;2.78;;;1.73;;
13832;SDS011;6987;19.472;-99.276;2023-05-29T07:37:50;1.98;;;1.80;;
13832;SDS011;6987;19.472;-99.276;2023-05-29T07:40:19;1.80;;;1.70;;
13832;SDS011;6987;19.472;-99.276;2023-05-29T07:42:48;1.83;;;1.73;;
13832;SDS011;6987;19.472;-99.276;2023-05-29T07:45:19;1.80;;;1.70;;
13832;SDS011;6987;19.472;-99.276;2023-05-29T07:47:48;1.60;;;1.50;;
13832;SDS011;6987;19.472;-99.276;2023-05-29T07:50:17;2.72;;;1.50;;
13832;SDS011;6987;19.472;-99.276;2023-05-29T07:52:45;2.47;;;1.88;;
13832;SDS011;6987;19.472;-99.276;2023-05-29T07:55:14;1.48;;;1.38;;
13832;SDS011;6987;19.472;-99.276;2023-05-29T07:57:43;2.15;;;1.70;;
13832;SDS011;6987;19.472;-99.276;2023-05-29T08:00:12;1.63;;;1.52;;
13832;SDS011;6987;19.472;-99.276;2023-05-29T08:02:43;1.88;;;1.70;;
13832;SDS011;6987;19.472;-99.276;2023-05-29T08:05:12;1.75;;;1.40;;
13832;SDS011;6987;19.472;-99.276;2023-05-29T08:07:41;1.50;;;1.50;;
13832;SDS011;6987;19.472;-99.276;2023-05-29T08:10:09;3.00;;;1.63;;
13832;SDS011;6987;19.472;-99.276;2023-05-29T08:12:38;1.70;;;1.60;;
13832;SDS011;6987;19.472;-99.276;2023-05-29T08:15:07;1.83;;;1.73;;
13832;SDS011;6987;19.472;-99.276;2023-05-29T08:17:37;1.75;;;1.65;;
13832;SDS011;6987;19.472;-99.276;2023-05-29T08:20:08;1.60;;;1.50;;
13832;SDS011;6987;19.472;-99.276;2023-05-29T08:22:37;1.50;;;1.50;;
13832;SDS011;6987;19.472;-99.276;2023-05-29T08:25:06;1.55;;;1.55;;
13832;SDS011;6987;19.472;-99.276;2023-05-29T08:27:35;4.03;;;1.85;;
13832;SDS011;6987;19.472;-99.276;2023-05-29T08:30:04;2.53;;;2.10;;
13832;SDS011;6987;19.472;-99.276;2023-05-29T08:32:33;1.80;;;1.70;;
13832;SDS011;6987;19.472;-99.276;2023-05-29T08:35:02;2.03;;;1.92;;
13832;SDS011;6987;19.472;-99.276;2023-05-29T08:37:33;1.83;;;1.73;;
13832;SDS011;6987;19.472;-99.276;2023-05-29T08:40:02;2.15;;;2.05;;
13832;SDS011;6987;19.472;-99.276;2023-05-29T08:42:36;1.50;;;1.50;;
13832;SDS011;6987;19.472;-99.276;2023-05-29T08:45:06;2.05;;;1.95;;
13832;SDS011;6987;19.472;-99.276;2023-05-29T08:47:36;2.20;;;2.10;;
13832;SDS011;6987;19.472;-99.276;2023-05-29T08:50:07;2.72;;;1.90;;
13832;SDS011;6987;19.472;-99.276;2023-05-29T08:52:38;1.95;;;1.90;;
13832;SDS011;6987;19.472;-99.276;2023-05-29T08:55:07;2.03;;;1.92;;
13832;SDS011;6987;19.472;-99.276;2023-05-29T08:57:36;2.45;;;1.90;;
13832;SDS011;6987;19.472;-99.276;2023-05-29T09:00:06;3.13;;;2.55;;
13832;SDS011;6987;19.472;-99.276;2023-05-29T09:02:38;3.30;;;3.10;;
13832;SDS011;6987;19.472;-99.276;2023-05-29T09:05:07;3.60;;;3.13;;
13832;SDS011;6987;19.472;-99.276;2023-05-29T09:07:38;2.20;;;2.10;;
13832;SDS011;6987;19.472;-99.276;2023-05-29T09:10:07;2.72;;;2.53;;
13832;SDS011;6987;19.472;-99.276;2023-05-29T09:12:38;2.47;;;2.38;;
13832;SDS011;6987;19.472;-99.276;2023-05-29T09:15:08;2.58;;;2.47;;
13832;SDS011;6987;19.472;-99.276;2023-05-29T09:17:45;3.00;;;2.80;;
13832;SDS011;6987;19.472;-99.276;2023-05-29T09:20:17;2.78;;;2.58;;
13832;SDS011;6987;19.472;-99.276;2023-05-29T09:22:54;2.90;;;2.75;;
13832;SDS011;6987;19.472;-99.276;2023-05-29T09:25:23;3.90;;;3.10;;
13832;SDS011;6987;19.472;-99.276;2023-05-29T09:27:53;3.05;;;2.85;;
13832;SDS011;6987;19.472;-99.276;2023-05-29T09:30:33;3.35;;;3.10;;
13832;SDS011;6987;19.472;-99.276;2023-05-29T09:33:02;3.08;;;2.88;;
13832;SDS011;6987;19.472;-99.276;2023-05-29T09:35:32;3.22;;;3.03;;
13832;SDS011;6987;19.472;-99.276;2023-05-29T09:38:03;5.70;;;3.30;;
13832;SDS011;6987;19.472;-99.276;2023-05-29T09:40:33;3.95;;;3.30;;
13832;SDS011;6987;19.472;-99.276;2023-05-29T09:43:03;3.65;;;3.35;;
13832;SDS011;6987;19.472;-99.276;2023-05-29T09:45:38;3.13;;;3.00;;
13832;SDS011;6987;19.472;-99.276;2023-05-29T09:48:07;3.67;;;3.47;;
13832;SDS011;6987;19.472;-99.276;2023-05-29T09:50:37;6.13;;;3.67;;
13832;SDS011;6987;19.472;-99.276;2023-05-29T09:53:17;3.90;;;3.53;;
13832;SDS011;6987;19.472;-99.276;2023-05-29T09:55:47;3.60;;;3.40;;
13832;SDS011;6987;19.472;-99.276;2023-05-29T09:58:17;3.95;;;3.72;;
13832;SDS011;6987;19.472;-99.276;2023-05-29T10:00:46;4.00;;;3.70;;
13832;SDS011;6987;19.472;-99.276;2023-05-29T10:03:15;3.50;;;3.25;;
13832;SDS011;6987;19.472;-99.276;2023-05-29T10:05:45;3.80;;;3.50;;
13832;SDS011;6987;19.472;-99.276;2023-05-29T10:08:18;5.57;;;3.92;;
13832;SDS011;6987;19.472;-99.276;2023-05-29T10:10:49;4.07;;;3.88;;
13832;SDS011;6987;19.472;-99.276;2023-05-29T10:13:21;3.72;;;3.53;;
13832;SDS011;6987;19.472;-99.276;2023-05-29T10:15:52;4.10;;;3.80;;
13832;SDS011;6987;19.472;-99.276;2023-05-29T10:18:23;4.35;;;3.85;;
13832;SDS011;6987;19.472;-99.276;2023-05-29T10:20:52;4.78;;;3.90;;
13832;SDS011;6987;19.472;-99.276;2023-05-29T10:23:25;4.20;;;3.90;;
13832;SDS011;6987;19.472;-99.276;2023-05-29T10:25:57;4.63;;;4.22;;
13832;SDS011;6987;19.472;-99.276;2023-05-29T10:28:27;4.60;;;3.55;;
13832;SDS011;6987;19.472;-99.276;2023-05-29T10:30:57;6.47;;;4.25;;
13832;SDS011;6987;19.472;-99.276;2023-05-29T10:33:37;4.95;;;4.50;;
13832;SDS011;6987;19.472;-99.276;2023-05-29T10:36:12;4.45;;;4.07;;
13832;SDS011;6987;19.472;-99.276;2023-05-29T10:38:44;5.15;;;4.13;;
13832;SDS011;6987;19.472;-99.276;2023-05-29T10:41:28;3.95;;;3.65;;
13832;SDS011;6987;19.472;-99.276;2023-05-29T10:43:58;4.88;;;4.18;;
13832;SDS011;6987;19.472;-99.276;2023-05-29T10:49:15;5.95;;;4.15;;
13832;SDS011;6987;19.472;-99.276;2023-05-29T10:51:49;4.63;;;4.22;;
13832;SDS011;6987;19.472;-99.276;2023-05-29T10:54:21;4.75;;;4.45;;
13832;SDS011;6987;19.472;-99.276;2023-05-29T10:56:51;5.03;;;4.05;;
13832;SDS011;6987;19.472;-99.276;2023-05-29T10:59:20;5.80;;;4.40;;
13832;SDS011;6987;19.472;-99.276;2023-05-29T11:01:52;7.93;;;4.05;;
13832;SDS011;6987;19.472;-99.276;2023-05-29T11:04:27;5.22;;;4.72;;
13832;SDS011;6987;19.472;-99.276;2023-05-29T11:06:57;5.88;;;4.40;;
13832;SDS011;6987;19.472;-99.276;2023-05-29T11:09:28;7.38;;;4.72;;
13832;SDS011;6987;19.472;-99.276;2023-05-29T11:12:16;4.93;;;4.45;;
13832;SDS011;6987;19.472;-99.276;2023-05-29T11:14:54;5.20;;;4.80;;
13832;SDS011;6987;19.472;-99.276;2023-05-29T11:17:30;5.35;;;4.85;;
13832;SDS011;6987;19.472;-99.276;2023-05-29T11:20:01;4.80;;;4.50;;
13832;SDS011;6987;19.472;-99.276;2023-05-29T11:22:38;6.28;;;4.72;;
13832;SDS011;6987;19.472;-99.276;2023-05-29T11:25:15;4.75;;;4.35;;
13832;SDS011;6987;19.472;-99.276;2023-05-29T11:27:44;6.95;;;5.40;;
13832;SDS011;6987;19.472;-99.276;2023-05-29T11:30:13;6.55;;;4.90;;
13832;SDS011;6987;19.472;-99.276;2023-05-29T11:32:42;4.75;;;4.45;;
13832;SDS011;6987;19.472;-99.276;2023-05-29T11:35:13;5.20;;;4.68;;
13832;SDS011;6987;19.472;-99.276;2023-05-29T11:37:42;5.10;;;4.60;;
13832;SDS011;6987;19.472;-99.276;2023-05-29T11:40:12;6.55;;;5.30;;
13832;SDS011;6987;19.472;-99.276;2023-05-29T11:42:43;5.70;;;5.20;;
13832;SDS011;6987;19.472;-99.276;2023-05-29T11:45:14;5.63;;;5.13;;
13832;SDS011;6987;19.472;-99.276;2023-05-29T11:47:51;6.22;;;5.68;;
13832;SDS011;6987;19.472;-99.276;2023-05-29T11:50:20;6.15;;;5.55;;
13832;SDS011;6987;19.472;-99.276;2023-05-29T11:52:49;5.90;;;5.50;;
13832;SDS011;6987;19.472;-99.276;2023-05-29T11:55:21;6.63;;;5.53;;
13832;SDS011;6987;19.472;-99.276;2023-05-29T11:57:57;6.32;;;5.82;;
13832;SDS011;6987;19.472;-99.276;2023-05-29T12:00:26;6.10;;;5.70;;
13832;SDS011;6987;19.472;-99.276;2023-05-29T12:02:58;6.57;;;6.00;;
13832;SDS011;6987;19.472;-99.276;2023-05-29T12:05:29;6.72;;;6.13;;
13832;SDS011;6987;19.472;-99.276;2023-05-29T12:07:58;6.18;;;5.57;;
13832;SDS011;6987;19.472;-99.276;2023-05-29T12:10:30;6.03;;;5.55;;
13832;SDS011;6987;19.472;-99.276;2023-05-29T12:13:00;7.05;;;6.35;;
13832;SDS011;6987;19.472;-99.276;2023-05-29T12:15:29;6.20;;;5.70;;
13832;SDS011;6987;19.472;-99.276;2023-05-29T12:17:58;6.63;;;6.07;;
13832;SDS011;6987;19.472;-99.276;2023-05-29T12:20:28;6.60;;;6.10;;
13832;SDS011;6987;19.472;-99.276;2023-05-29T12:22:59;6.55;;;6.05;;
13832;SDS011;6987;19.472;-99.276;2023-05-29T12:25:28;9.55;;;6.82;;
13832;SDS011;6987;19.472;-99.276;2023-05-29T12:27:57;7.13;;;6.53;;
13832;SDS011;6987;19.472;-99.276;2023-05-29T12:30:28;7.85;;;6.78;;
13832;SDS011;6987;19.472;-99.276;2023-05-29T12:32:57;7.30;;;6.70;;
13832;SDS011;6987;19.472;-99.276;2023-05-29T12:35:27;8.30;;;7.60;;
13832;SDS011;6987;19.472;-99.276;2023-05-29T12:37:57;8.70;;;7.82;;
13832;SDS011;6987;19.472;-99.276;2023-05-29T12:40:27;8.88;;;6.97;;
13832;SDS011;6987;19.472;-99.276;2023-05-29T12:42:56;8.07;;;7.25;;
13832;SDS011;6987;19.472;-99.276;2023-05-29T12:45:25;8.32;;;7.45;;
13832;SDS011;6987;19.472;-99.276;2023-05-29T12:47:56;11.43;;;8.73;;
13832;SDS011;6987;19.472;-99.276;2023-05-29T12:50:27;14.77;;;8.23;;
13832;SDS011;6987;19.472;-99.276;2023-05-29T12:52:57;11.15;;;8.25;;
13832;SDS011;6987;19.472;-99.276;2023-05-29T12:55:26;9.63;;;8.45;;
13832;SDS011;6987;19.472;-99.276;2023-05-29T12:57:55;8.70;;;8.00;;
13832;SDS011;6987;19.472;-99.276;2023-05-29T13:00:24;8.43;;;7.70;;
13832;SDS011;6987;19.472;-99.276;2023-05-29T13:02:53;11.88;;;7.95;;
13832;SDS011;6987;19.472;-99.276;2023-05-29T13:05:24;8.88;;;7.80;;
13832;SDS011;6987;19.472;-99.276;2023-05-29T13:07:53;8.80;;;8.10;;
13832;SDS011;6987;19.472;-99.276;2023-05-29T13:10:22;9.00;;;8.20;;
13832;SDS011;6987;19.472;-99.276;2023-05-29T13:12:51;8.38;;;7.68;;
13832;SDS011;6987;19.472;-99.276;2023-05-29T13:15:21;8.43;;;7.63;;
13832;SDS011;6987;19.472;-99.276;2023-05-29T13:17:52;9.88;;;8.93;;
13832;SDS011;6987;19.472;-99.276;2023-05-29T13:20:20;10.10;;;9.10;;
13832;SDS011;6987;19.472;-99.276;2023-05-29T13:22:51;10.13;;;9.32;;
13832;SDS011;6987;19.472;-99.276;2023-05-29T13:25:21;10.95;;;9.70;;
13832;SDS011;6987;19.472;-99.276;2023-05-29T13:27:51;11.02;;;10.02;;
13832;SDS011;6987;19.472;-99.276;2023-05-29T13:30:21;14.68;;;11.30;;
13832;SDS011;6987;19.472;-99.276;2023-05-29T13:32:50;10.90;;;9.95;;
13832;SDS011;6987;19.472;-99.276;2023-05-29T13:35:19;10.38;;;9.40;;
13832;SDS011;6987;19.472;-99.276;2023-05-29T13:37:48;12.30;;;11.07;;
13832;SDS011;6987;19.472;-99.276;2023-05-29T13:40:18;13.52;;;12.15;;
13832;SDS011;6987;19.472;-99.276;2023-05-29T13:42:47;14.40;;;12.50;;
13832;SDS011;6987;19.472;-99.276;2023-05-29T13:45:16;13.48;;;12.25;;
13832;SDS011;6987;19.472;-99.276;2023-05-29T13:47:45;13.50;;;12.10;;
13832;SDS011;6987;19.472;-99.276;2023-05-29T13:50:14;19.25;;;13.93;;
13832;SDS011;6987;19.472;-99.276;2023-05-29T13:52:43;16.45;;;14.77;;
13832;SDS011;6987;19.472;-99.276;2023-05-29T13:55:12;25.05;;;14.52;;
13832;SDS011;6987;19.472;-99.276;2023-05-29T13:57:42;17.52;;;14.77;;
13832;SDS011;6987;19.472;-99.276;2023-05-29T14:00:11;18.00;;;16.23;;
13832;SDS011;6987;19.472;-99.276;2023-05-29T14:02:41;17.60;;;15.82;;
13832;SDS011;6987;19.472;-99.276;2023-05-29T14:05:10;17.13;;;14.52;;
13832;SDS011;6987;19.472;-99.276;2023-05-29T14:07:38;16.48;;;14.98;;
13832;SDS011;6987;19.472;-99.276;2023-05-29T14:10:08;17.27;;;15.63;;
13832;SDS011;6987;19.472;-99.276;2023-05-29T14:12:36;18.75;;;16.65;;
13832;SDS011;6987;19.472;-99.276;2023-05-29T14:15:08;17.58;;;15.80;;
13832;SDS011;6987;19.472;-99.276;2023-05-29T14:17:37;16.45;;;14.70;;
13832;SDS011;6987;19.472;-99.276;2023-05-29T14:20:06;18.20;;;16.42;;
13832;SDS011;6987;19.472;-99.276;2023-05-29T14:22:35;18.70;;;16.70;;
13832;SDS011;6987;19.472;-99.276;2023-05-29T14:25:04;17.08;;;15.30;;
13832;SDS011;6987;19.472;-99.276;2023-05-29T14:27:33;18.15;;;15.85;;
13832;SDS011;6987;19.472;-99.276;2023-05-29T14:30:02;20.73;;;16.88;;
13832;SDS011;6987;19.472;-99.276;2023-05-29T14:32:33;19.17;;;17.33;;
13832;SDS011;6987;19.472;-99.276;2023-05-29T14:35:02;19.75;;;16.50;;
13832;SDS011;6987;19.472;-99.276;2023-05-29T14:37:31;19.00;;;16.90;;
13832;SDS011;6987;19.472;-99.276;2023-05-29T14:40:01;18.33;;;16.55;;
13832;SDS011;6987;19.472;-99.276;2023-05-29T14:42:29;21.27;;;17.63;;
13832;SDS011;6987;19.472;-99.276;2023-05-29T14:44:59;18.98;;;17.23;;
13832;SDS011;6987;19.472;-99.276;2023-05-29T14:47:29;20.05;;;18.02;;
13832;SDS011;6987;19.472;-99.276;2023-05-29T14:49:59;25.75;;;18.77;;